FQVL

Vilankulo Airport

Vilanculo, Mozambique
METAR FQVL 240700Z 13004KT 060V170 9999 FEW020 25/22 Q1021
Observed Flight Rules
May-24 @ 07:00 UTC (an hour ago) Visual Flight Rules
Wind Visibility Clouds
130° at 4 knots 10,000+ meters
  • Few at 2,000' AGL
Temperatures Readings
Current 25°C / 77°F
Dewpoint 22°C / 72°F
Humidity 83%
Altimeter 30.15" Hg
Pressure 1021 hPa
Elevation 21
METAR FQVL 240700Z 13004KT 060V170 9999 FEW020 25/22 Q1021
Observed Flight Rules
May-24 @ 07:00 UTC
(an hour ago)
VFR
Wind Visibility
130° at 4 knots 10,000+ meters
Clouds
  • Few at 2,000' AGL
Temperature Dewpoint
25°C / 77°F 22°C / 72°F
Humidity Altimeter Pressure
83% 30.15" Hg 1021 hPa